Terminal Aerodrome Forecast
Issued by NWS Charleston, WV

Home | Current Version | Previous Version | Text Only | Print | Product List | Glossary On
Versions: 1 2 3 4 5 6 7 8 9 10 11 12 13 14 15 16 17 18 19 20 21 22 23 24 25 26
647
FTUS41 KRLX 010853 AAA
TAFPKB
TAF AMD
KPKB 010853Z 0109/0206 00000KT 3/4SM BR OVC003
     FM011200 00000KT 1/2SM FG BKN003
     FM011400 VRB02KT 3SM BR SCT016
     FM011500 VRB03KT P6SM SCT045=

USA.gov is the U.S. government's official web portal to all federal, state and local government web resources and services.